Time;durP1;ratioP1;P1;durP2;ratioP2;P2;SDS_P1;SDS_P2;PMS_P1;PMS_P2;Temp;Humidity;BMP_temperature;BMP_pressure;BME280_temperature;BME280_humidity;BME280_pressure;Samples;Min_cycle;Max_cycle;Signal;HPM_P1;HPM_P2
2022/12/28 00:02:23;;;;;;;8.32;3.55;;;5.50;99.90;;;;;;5085216;28;21070;-67
2022/12/28 00:04:49;;;;;;;9.07;4.00;;;5.50;99.90;;;;;;5089277;28;20115;-68
2022/12/28 00:07:15;;;;;;;11.00;4.07;;;5.50;99.90;;;;;;5089232;28;20040;-67
2022/12/28 00:09:41;;;;;;;8.93;4.07;;;5.50;99.90;;;;;;5088130;28;20031;-68
2022/12/28 00:12:07;;;;;;;7.50;3.83;;;5.50;99.90;;;;;;5088509;28;20032;-66
2022/12/28 00:14:33;;;;;;;10.45;3.72;;;5.50;99.90;;;;;;5087644;28;20090;-67
2022/12/28 00:16:59;;;;;;;8.90;3.83;;;5.50;99.90;;;;;;5085655;28;20075;-66
2022/12/28 00:19:24;;;;;;;8.23;4.05;;;5.50;99.90;;;;;;5070523;28;20407;-68
2022/12/28 00:21:53;;;;;;;13.20;3.90;;;5.50;99.90;;;;;;5072215;28;20390;-68
2022/12/28 00:24:23;;;;;;;5.38;3.90;;;5.50;99.90;;;;;;5087795;28;20036;-66
2022/12/28 00:26:49;;;;;;;8.93;4.20;;;5.50;99.90;;;;;;5080392;28;20040;-66
2022/12/28 00:29:15;;;;;;;9.43;4.47;;;5.50;99.90;;;;;;5062449;28;20051;-66
2022/12/28 00:31:41;;;;;;;8.60;3.88;;;5.50;99.90;;;;;;5085982;27;20044;-67
2022/12/28 00:34:07;;;;;;;10.90;4.35;;;5.50;99.90;;;;;;5098567;28;20083;-67
2022/12/28 00:36:36;;;;;;;8.25;4.18;;;5.50;99.90;;;;;;5105842;27;20504;-66
2022/12/28 00:39:02;;;;;;;15.00;5.40;;;5.50;99.90;;;;;;5072999;28;20043;-67
2022/12/28 00:41:28;;;;;;;9.70;4.05;;;5.50;99.90;;;;;;5085193;28;20039;-69
2022/12/28 00:43:53;;;;;;;9.93;4.07;;;5.50;99.90;;;;;;5089022;28;20097;-65
2022/12/28 00:46:19;;;;;;;12.00;3.90;;;5.50;99.90;;;;;;5087228;27;20048;-69
2022/12/28 00:48:44;;;;;;;7.53;3.50;;;5.50;99.90;;;;;;5083362;28;20488;-66
2022/12/28 00:51:13;;;;;;;8.15;4.00;;;5.60;99.90;;;;;;5083406;28;20108;-68
2022/12/28 00:53:38;;;;;;;10.05;3.67;;;5.60;99.90;;;;;;5085444;28;20367;-68
2022/12/28 00:56:16;;;;;;;11.45;3.88;;;5.60;99.90;;;;;;5068597;28;20043;-67
2022/12/28 00:58:42;;;;;;;6.15;3.63;;;5.60;99.90;;;;;;5119071;27;20413;-67
2022/12/28 01:01:17;;;;;;;7.75;3.97;;;5.60;99.90;;;;;;5073455;28;20065;-67
2022/12/28 01:03:43;;;;;;;9.20;3.50;;;5.60;99.90;;;;;;5125759;27;20059;-68
2022/12/28 01:06:11;;;;;;;9.60;3.80;;;5.60;99.90;;;;;;5126230;27;20047;-67
2022/12/28 01:08:37;;;;;;;5.35;3.45;;;5.60;99.90;;;;;;5091146;28;20040;-67
2022/12/28 01:11:29;;;;;;;9.07;3.72;;;5.70;99.90;;;;;;5075896;28;20087;-66
2022/12/28 01:13:57;;;;;;;5.82;3.42;;;5.70;99.90;;;;;;5066383;28;20478;-67
2022/12/28 01:16:24;;;;;;;8.35;3.80;;;5.70;99.90;;;;;;5084695;28;20043;-66
2022/12/28 01:18:53;;;;;;;7.18;3.80;;;5.70;99.90;;;;;;5086555;28;20085;-67
2022/12/28 01:21:21;;;;;;;9.00;4.25;;;5.70;99.90;;;;;;5087803;28;20055;-66
2022/12/28 01:23:48;;;;;;;7.22;4.45;;;5.70;99.90;;;;;;5085413;28;20047;-66
2022/12/28 01:26:15;;;;;;;7.85;4.53;;;5.70;99.90;;;;;;5091210;28;20040;-67
2022/12/28 01:28:41;;;;;;;9.05;4.07;;;5.70;99.90;;;;;;5119066;27;20126;-69
2022/12/28 01:31:11;;;;;;;7.43;3.78;;;5.70;99.90;;;;;;5083040;28;20147;-67
2022/12/28 01:33:38;;;;;;;7.85;3.80;;;5.70;99.90;;;;;;5122753;27;20130;-68
2022/12/28 01:36:24;;;;;;;8.90;4.18;;;5.80;99.90;;;;;;5086899;27;20077;-68
2022/12/28 01:38:55;;;;;;;9.98;4.00;;;5.80;99.90;;;;;;5136600;27;20781;-68
2022/12/28 01:41:22;;;;;;;7.47;4.22;;;5.80;99.90;;;;;;5122528;27;20043;-66
2022/12/28 01:44:09;;;;;;;8.65;4.07;;;5.80;99.90;;;;;;5088115;28;20044;-68
2022/12/28 01:46:48;;;;;;;10.32;4.15;;;5.80;99.90;;;;;;5032415;28;20049;-67
2022/12/28 01:49:31;;;;;;;8.52;4.00;;;5.80;99.90;;;;;;5050297;28;20524;-67
2022/12/28 01:52:15;;;;;;;8.02;3.78;;;5.80;99.90;;;;;;5029417;28;20069;-67
2022/12/28 01:54:45;;;;;;;7.90;3.85;;;5.90;99.90;;;;;;5029524;28;20083;-67
2022/12/28 01:57:13;;;;;;;7.05;4.07;;;5.90;99.90;;;;;;5033597;28;20098;-66
2022/12/28 01:59:42;;;;;;;7.25;3.78;;;5.90;99.90;;;;;;5029409;28;20131;-66
2022/12/28 02:02:10;;;;;;;8.02;3.35;;;5.90;99.90;;;;;;5031778;28;20041;-67
2022/12/28 02:04:36;;;;;;;7.43;3.88;;;5.90;99.90;;;;;;5059560;28;20140;-68
2022/12/28 02:07:02;;;;;;;10.63;4.45;;;5.90;99.90;;;;;;5030542;28;20120;-68
2022/12/28 02:09:42;;;;;;;7.60;4.10;;;5.90;99.90;;;;;;5033513;28;20044;-66
2022/12/28 02:12:12;;;;;;;10.77;4.13;;;5.90;99.90;;;;;;5032947;28;20122;-69
2022/12/28 02:14:39;;;;;;;7.68;3.97;;;5.90;99.90;;;;;;5017437;28;20515;-67
2022/12/28 02:17:08;;;;;;;10.48;4.28;;;5.90;99.90;;;;;;5028710;28;20148;-69
2022/12/28 02:19:45;;;;;;;11.45;4.70;;;5.90;99.90;;;;;;5033359;28;20079;-67
2022/12/28 02:22:10;;;;;;;10.00;4.97;;;5.90;99.90;;;;;;5030716;28;20068;-66
2022/12/28 02:24:50;;;;;;;11.43;4.70;;;5.80;99.90;;;;;;5119206;27;20071;-66
2022/12/28 02:27:36;;;;;;;10.40;4.55;;;5.80;99.90;;;;;;5120262;27;20039;-67
2022/12/28 02:30:10;;;;;;;9.57;5.18;;;5.80;99.90;;;;;;5088475;28;20043;-67
2022/12/28 02:32:42;;;;;;;8.43;5.30;;;5.80;99.90;;;;;;5090272;28;20048;-67
2022/12/28 02:35:39;;;;;;;10.30;5.93;;;5.80;99.90;;;;;;5125376;27;20042;-66
2022/12/28 02:38:25;;;;;;;11.02;5.38;;;5.80;99.90;;;;;;5087688;27;20297;-68
2022/12/28 02:40:57;;;;;;;10.65;5.05;;;5.80;99.90;;;;;;5093290;28;20115;-68
2022/12/28 02:43:22;;;;;;;10.48;5.53;;;5.80;99.90;;;;;;5126502;27;20067;-68
2022/12/28 02:52:13;;;;;;;8.50;5.80;;;5.80;99.90;;;;;;5094061;28;20055;-67
2022/12/28 02:57:29;;;;;;;12.05;5.07;;;5.90;99.90;;;;;;5013410;28;20143;-66
2022/12/28 03:00:01;;;;;;;9.98;5.28;;;5.90;99.90;;;;;;4995078;28;20080;-68
2022/12/28 03:02:27;;;;;;;9.70;6.05;;;6.00;99.90;;;;;;5012559;28;20086;-68
2022/12/28 03:08:13;;;;;;;7.25;4.95;;;6.00;99.90;;;;;;4995141;28;20123;-67
2022/12/28 03:08:19;;;;;;;11.93;5.63;;;6.00;99.90;;;;;;5009778;28;20030;-68
2022/12/28 03:10:47;;;;;;;11.50;5.20;;;6.00;99.90;;;;;;5012848;28;20504;-67
2022/12/28 03:13:44;;;;;;;8.25;5.18;;;6.10;99.90;;;;;;5011776;28;20124;-66
2022/12/28 03:16:27;;;;;;;12.02;5.72;;;6.10;99.90;;;;;;5044552;28;20502;-66
2022/12/28 03:33:04;;;;;;;9.48;5.95;;;6.20;99.90;;;;;;5121891;27;20595;-66
2022/12/28 03:35:42;;;;;;;10.00;5.45;;;6.20;99.90;;;;;;5085954;28;20093;-68
2022/12/28 03:38:11;;;;;;;9.00;5.15;;;6.20;99.90;;;;;;5118533;27;20131;-69
2022/12/28 03:40:50;;;;;;;7.53;5.55;;;6.20;99.90;;;;;;5122518;27;20131;-68
2022/12/28 03:43:41;;;;;;;8.05;5.32;;;6.20;99.90;;;;;;5095324;27;20118;-67
2022/12/28 03:46:34;;;;;;;10.75;5.88;;;6.20;99.90;;;;;;5122502;27;20116;-68
2022/12/28 03:49:01;;;;;;;6.72;5.30;;;6.20;99.90;;;;;;5090939;28;20392;-66
2022/12/28 03:51:29;;;;;;;9.07;5.53;;;6.20;99.90;;;;;;5124984;27;20435;-65
2022/12/28 03:53:55;;;;;;;8.40;5.43;;;6.20;99.90;;;;;;5121198;27;20552;-67
2022/12/28 03:56:26;;;;;;;7.50;5.07;;;6.30;99.90;;;;;;5126745;27;20153;-68
2022/12/28 03:58:52;;;;;;;7.78;5.43;;;6.30;99.90;;;;;;5083010;28;20386;-65
2022/12/28 04:01:18;;;;;;;8.98;5.32;;;6.30;99.90;;;;;;5091943;28;20047;-67
2022/12/28 04:03:44;;;;;;;8.20;4.93;;;6.30;99.90;;;;;;5120984;27;20393;-68
2022/12/28 04:06:15;;;;;;;8.93;5.47;;;6.30;99.90;;;;;;5117289;27;20059;-67
2022/12/28 04:08:42;;;;;;;7.88;5.43;;;6.30;99.90;;;;;;5117999;27;20148;-69
2022/12/28 04:11:08;;;;;;;9.90;5.22;;;6.30;99.90;;;;;;5090849;28;20039;-67
2022/12/28 04:13:34;;;;;;;8.65;5.07;;;6.30;99.90;;;;;;5123229;27;20044;-65
2022/12/28 04:16:09;;;;;;;6.88;4.93;;;6.30;99.90;;;;;;5116966;27;20043;-66
2022/12/28 04:18:35;;;;;;;8.18;5.18;;;6.40;99.90;;;;;;5085453;28;20057;-67
2022/12/28 04:21:02;;;;;;;8.65;5.78;;;6.40;99.90;;;;;;5089808;28;20490;-67
2022/12/28 04:23:30;;;;;;;6.97;5.03;;;6.40;99.90;;;;;;5088854;28;20130;-68
2022/12/28 04:26:01;;;;;;;6.22;4.88;;;6.40;99.90;;;;;;5124654;27;20118;-68
2022/12/28 04:28:27;;;;;;;8.27;5.10;;;6.40;99.90;;;;;;5121805;27;20066;-68
2022/12/28 04:30:53;;;;;;;6.25;4.80;;;6.40;99.90;;;;;;5125091;27;20044;-66
2022/12/28 04:33:18;;;;;;;7.05;4.75;;;6.50;99.90;;;;;;5069735;28;20050;-68
2022/12/28 04:35:44;;;;;;;6.65;5.03;;;6.50;99.90;;;;;;5117090;27;20039;-68
2022/12/28 04:38:10;;;;;;;6.15;4.97;;;6.50;99.90;;;;;;5096039;27;20386;-66
2022/12/28 04:40:35;;;;;;;5.88;5.28;;;6.50;99.90;;;;;;5075213;28;20450;-68
2022/12/28 04:43:01;;;;;;;8.07;5.40;;;6.50;99.90;;;;;;5088584;28;20039;-67
2022/12/28 04:45:27;;;;;;;6.70;5.13;;;6.60;99.90;;;;;;5092486;28;20043;-68
2022/12/28 04:47:56;;;;;;;8.10;5.72;;;6.60;99.90;;;;;;5088326;28;20066;-67
2022/12/28 04:50:22;;;;;;;7.78;5.35;;;6.60;99.90;;;;;;5088609;27;20506;-68
2022/12/28 04:52:48;;;;;;;7.18;5.70;;;6.60;99.90;;;;;;5066696;28;20062;-66
2022/12/28 04:55:14;;;;;;;7.03;5.90;;;6.70;99.90;;;;;;5085805;27;20490;-69
2022/12/28 04:57:42;;;;;;;8.77;6.30;;;6.70;99.90;;;;;;5124305;27;20035;-67
2022/12/28 05:00:09;;;;;;;7.15;5.95;;;6.70;99.90;;;;;;5086915;28;20051;-67
2022/12/28 05:02:35;;;;;;;6.85;5.88;;;6.70;99.90;;;;;;5117368;27;20080;-66
2022/12/28 05:05:00;;;;;;;7.57;6.50;;;6.80;99.90;;;;;;5125146;27;20047;-69
2022/12/28 05:07:27;;;;;;;8.57;6.72;;;6.80;99.90;;;;;;5121059;27;20049;-69
2022/12/28 05:09:52;;;;;;;6.95;6.22;;;6.90;99.90;;;;;;5085489;28;20066;-67
2022/12/28 05:12:19;;;;;;;9.48;7.03;;;6.90;99.90;;;;;;5082501;28;20043;-67
2022/12/28 05:14:45;;;;;;;7.72;6.93;;;6.90;99.90;;;;;;5085885;28;20079;-69
2022/12/28 05:17:11;;;;;;;7.75;6.90;;;7.00;99.90;;;;;;5121119;27;20127;-70
2022/12/28 05:19:36;;;;;;;7.78;6.97;;;7.00;99.90;;;;;;5092121;28;20108;-67
2022/12/28 05:22:02;;;;;;;8.18;6.95;;;7.00;99.90;;;;;;5087632;27;20038;-70
2022/12/28 05:24:28;;;;;;;7.88;7.07;;;7.00;99.90;;;;;;5124434;27;20545;-67
2022/12/28 05:26:54;;;;;;;7.97;7.22;;;7.10;99.90;;;;;;5070013;28;20173;-69
2022/12/28 05:29:20;;;;;;;10.45;8.18;;;7.10;99.90;;;;;;5090208;28;20043;-69
2022/12/28 05:31:45;;;;;;;8.57;7.68;;;7.10;99.90;;;;;;5066394;28;20125;-69
2022/12/28 05:34:11;;;;;;;9.43;7.72;;;7.10;99.90;;;;;;5060116;28;20046;-68
2022/12/28 05:36:38;;;;;;;8.55;7.65;;;7.10;99.90;;;;;;5081824;28;21690;-67
2022/12/28 05:39:04;;;;;;;9.02;7.65;;;7.20;99.90;;;;;;5085006;28;20108;-67
2022/12/28 05:41:30;;;;;;;11.32;8.05;;;7.20;99.90;;;;;;5085890;28;20075;-68
2022/12/28 05:43:58;;;;;;;9.30;8.40;;;7.20;99.90;;;;;;5086417;28;20097;-68
2022/12/28 05:46:33;;;;;;;10.52;8.60;;;7.30;99.90;;;;;;5087185;28;20063;-66
2022/12/28 05:48:59;;;;;;;11.13;8.60;;;7.30;99.90;;;;;;5082332;28;20036;-67
2022/12/28 05:51:30;;;;;;;9.90;8.20;;;7.30;99.90;;;;;;5079507;28;20055;-66
2022/12/28 05:53:58;;;;;;;10.30;8.20;;;7.40;99.90;;;;;;5113273;27;20048;-67
2022/12/28 05:56:29;;;;;;;10.27;8.55;;;7.40;99.90;;;;;;5056215;28;20048;-68
2022/12/28 05:58:57;;;;;;;10.35;9.13;;;7.50;99.90;;;;;;5118745;28;20379;-66
2022/12/28 06:01:24;;;;;;;11.10;9.75;;;7.40;99.90;;;;;;5098346;28;20035;-68
2022/12/28 06:04:18;;;;;;;10.48;9.30;;;7.50;99.90;;;;;;5094189;28;20075;-68
2022/12/28 06:06:45;;;;;;;9.82;8.82;;;7.50;99.90;;;;;;5075450;28;20410;-70
2022/12/28 06:09:11;;;;;;;10.73;9.57;;;7.50;99.90;;;;;;5120638;28;20044;-67
2022/12/28 06:11:37;;;;;;;10.38;9.27;;;7.50;99.90;;;;;;5083334;28;20566;-68
2022/12/28 06:14:04;;;;;;;10.63;9.52;;;7.50;99.90;;;;;;5084159;28;20134;-67
2022/12/28 06:16:32;;;;;;;11.10;9.90;;;7.50;99.90;;;;;;5079765;28;20051;-66
2022/12/28 06:18:58;;;;;;;10.85;9.75;;;7.60;99.90;;;;;;5120827;28;20704;-67
2022/12/28 06:21:29;;;;;;;13.88;10.18;;;7.60;99.90;;;;;;5080085;28;20029;-67
2022/12/28 06:23:57;;;;;;;11.73;10.10;;;7.60;99.90;;;;;;5086638;28;20044;-69
2022/12/28 06:26:23;;;;;;;11.32;10.15;;;7.60;99.90;;;;;;5084025;28;20494;-69
2022/12/28 06:28:49;;;;;;;11.40;10.30;;;7.60;99.90;;;;;;5078502;28;20036;-67
2022/12/28 06:31:18;;;;;;;12.38;10.88;;;7.70;99.90;;;;;;5122207;27;20506;-66
2022/12/28 06:33:44;;;;;;;11.52;10.25;;;7.70;99.90;;;;;;5084544;28;20139;-65
2022/12/28 06:36:22;;;;;;;11.32;10.15;;;7.70;99.90;;;;;;5067448;28;20040;-68
2022/12/28 06:38:49;;;;;;;12.15;10.57;;;7.70;99.90;;;;;;5073563;28;20067;-69
2022/12/28 06:41:16;;;;;;;12.00;10.75;;;7.70;99.90;;;;;;5088713;28;20123;-66
2022/12/28 06:43:43;;;;;;;11.85;10.63;;;7.70;99.90;;;;;;5085631;28;20474;-68
2022/12/28 06:46:10;;;;;;;11.57;10.35;;;7.70;99.90;;;;;;5091117;28;20075;-70
2022/12/28 06:48:36;;;;;;;11.85;10.65;;;7.80;99.90;;;;;;5091622;28;20528;-68
2022/12/28 06:51:03;;;;;;;13.48;11.18;;;7.80;99.90;;;;;;5091269;28;20195;-68
2022/12/28 06:53:34;;;;;;;12.35;11.05;;;7.80;99.90;;;;;;5090983;28;20043;-68
2022/12/28 06:56:03;;;;;;;12.05;10.02;;;7.80;99.90;;;;;;5090809;28;20042;-69
2022/12/28 06:58:29;;;;;;;13.38;9.98;;;7.80;99.90;;;;;;5090394;28;20394;-69
2022/12/28 07:00:56;;;;;;;12.00;10.80;;;7.80;99.90;;;;;;5105591;28;20072;-67
2022/12/28 07:03:23;;;;;;;14.65;11.10;;;7.90;99.90;;;;;;5089392;28;20111;-69
2022/12/28 07:05:49;;;;;;;11.27;10.05;;;7.90;99.90;;;;;;5090090;28;20119;-68
2022/12/28 07:08:15;;;;;;;11.40;10.20;;;7.90;99.90;;;;;;5090150;28;20032;-67
2022/12/28 07:10:41;;;;;;;11.82;10.73;;;7.90;99.90;;;;;;5089986;28;20070;-67
2022/12/28 07:13:07;;;;;;;11.55;10.43;;;7.90;99.90;;;;;;5091965;28;20513;-68
2022/12/28 07:15:35;;;;;;;15.52;10.85;;;8.00;99.90;;;;;;5088080;28;20079;-68
2022/12/28 07:18:01;;;;;;;12.27;10.30;;;8.00;99.90;;;;;;5123893;27;20032;-66
2022/12/28 07:20:27;;;;;;;11.38;9.63;;;8.00;99.90;;;;;;5090093;28;20059;-69
2022/12/28 07:22:53;;;;;;;11.90;10.23;;;8.00;99.90;;;;;;5090267;28;20036;-69
2022/12/28 07:25:19;;;;;;;10.35;9.25;;;8.00;99.90;;;;;;5090455;28;20036;-68
2022/12/28 07:27:44;;;;;;;13.30;10.10;;;8.00;99.90;;;;;;5089782;28;20518;-69
2022/12/28 07:30:11;;;;;;;11.07;9.70;;;8.10;99.90;;;;;;5090313;28;20043;-69
2022/12/28 07:32:37;;;;;;;11.90;9.98;;;8.10;99.90;;;;;;5093329;28;20048;-67
2022/12/28 07:35:04;;;;;;;11.00;9.73;;;8.10;99.90;;;;;;5092463;27;20054;-69
2022/12/28 07:37:29;;;;;;;10.88;9.07;;;8.10;99.90;;;;;;5111285;27;20035;-71
2022/12/28 07:39:55;;;;;;;13.13;9.63;;;8.10;99.90;;;;;;5090509;28;20032;-69
2022/12/28 07:42:21;;;;;;;10.98;9.15;;;8.10;99.90;;;;;;5092224;28;20027;-69
2022/12/28 07:44:46;;;;;;;12.38;8.95;;;8.10;99.90;;;;;;5093237;28;20375;-70
2022/12/28 07:47:13;;;;;;;12.52;10.07;;;8.20;99.90;;;;;;5106604;27;20040;-68
2022/12/28 07:49:39;;;;;;;12.10;9.20;;;8.20;99.90;;;;;;5072253;28;20047;-69
2022/12/28 07:52:04;;;;;;;12.50;9.02;;;8.20;99.90;;;;;;5093495;28;20043;-67
2022/12/28 07:54:30;;;;;;;13.10;8.98;;;8.30;99.90;;;;;;5093624;28;20075;-67
2022/12/28 07:56:56;;;;;;;9.75;8.75;;;8.20;99.90;;;;;;5111141;28;20027;-66
2022/12/28 07:59:21;;;;;;;10.48;8.90;;;8.30;99.90;;;;;;5093018;28;20038;-68
2022/12/28 08:01:49;;;;;;;12.23;9.00;;;8.30;99.90;;;;;;5092838;28;20105;-67
2022/12/28 08:04:16;;;;;;;11.80;8.90;;;8.30;99.90;;;;;;5127121;27;20043;-68
2022/12/28 08:06:43;;;;;;;10.48;9.20;;;8.20;99.90;;;;;;5127346;27;20478;-69
2022/12/28 08:09:10;;;;;;;9.88;8.48;;;8.30;99.90;;;;;;5126961;27;20036;-69
2022/12/28 08:11:39;;;;;;;10.55;8.77;;;8.20;99.90;;;;;;5092386;28;20416;-68
2022/12/28 08:14:05;;;;;;;10.43;8.63;;;8.20;99.90;;;;;;5126775;27;20043;-68
2022/12/28 08:16:34;;;;;;;9.35;8.38;;;8.30;99.90;;;;;;5093088;28;20035;-69
2022/12/28 08:19:00;;;;;;;9.88;8.55;;;8.20;99.90;;;;;;5126786;27;20031;-69
2022/12/28 08:21:29;;;;;;;10.40;8.68;;;8.20;99.90;;;;;;5093093;28;20075;-68
2022/12/28 08:23:55;;;;;;;9.45;8.05;;;8.20;99.90;;;;;;5127249;27;20040;-69
2022/12/28 08:26:27;;;;;;;12.15;9.18;;;8.20;99.90;;;;;;5093046;28;20715;-68
2022/12/28 08:28:55;;;;;;;10.68;8.50;;;8.20;99.90;;;;;;5109846;28;20036;-67
2022/12/28 08:31:27;;;;;;;9.52;8.05;;;8.20;99.90;;;;;;5092843;28;20112;-68
2022/12/28 08:33:55;;;;;;;10.00;8.80;;;8.20;99.90;;;;;;5092630;28;20165;-67
2022/12/28 08:36:21;;;;;;;10.05;8.77;;;8.20;99.90;;;;;;5126992;27;20031;-70
2022/12/28 08:38:47;;;;;;;10.13;8.20;;;8.20;99.90;;;;;;5126661;27;20035;-68
2022/12/28 08:41:15;;;;;;;8.95;8.15;;;8.20;99.90;;;;;;5092636;28;20390;-66
2022/12/28 08:43:42;;;;;;;8.18;7.30;;;8.30;99.90;;;;;;5126843;27;20050;-68
2022/12/28 08:46:15;;;;;;;9.20;7.18;;;8.30;99.90;;;;;;5109259;28;20054;-69
2022/12/28 08:48:41;;;;;;;8.15;7.30;;;8.30;99.90;;;;;;5126472;27;20050;-67
2022/12/28 08:51:10;;;;;;;10.15;6.95;;;8.40;99.90;;;;;;5110460;28;20039;-69
2022/12/28 08:53:36;;;;;;;7.63;6.93;;;8.40;99.90;;;;;;5092190;28;20106;-67
2022/12/28 08:56:12;;;;;;;9.10;6.90;;;8.40;99.90;;;;;;5126377;27;20065;-66
2022/12/28 08:58:43;;;;;;;7.55;6.65;;;8.50;99.90;;;;;;5075476;28;20040;-69
2022/12/28 09:01:12;;;;;;;7.53;6.72;;;8.50;99.90;;;;;;5126119;27;20054;-67
2022/12/28 09:03:40;;;;;;;8.45;6.55;;;8.50;99.90;;;;;;5092327;28;20505;-67
2022/12/28 09:06:10;;;;;;;7.15;6.03;;;8.50;99.90;;;;;;5126488;27;20459;-68
2022/12/28 09:08:36;;;;;;;7.55;6.60;;;8.50;99.90;;;;;;5126133;27;20054;-68
2022/12/28 09:11:04;;;;;;;7.47;6.45;;;8.50;99.90;;;;;;5092199;28;20043;-70
2022/12/28 09:13:31;;;;;;;8.93;5.90;;;8.60;99.90;;;;;;5126085;27;20036;-68
2022/12/28 09:15:58;;;;;;;7.30;6.38;;;8.60;99.90;;;;;;5092023;28;20461;-67
2022/12/28 09:18:23;;;;;;;6.65;5.95;;;8.60;99.90;;;;;;5091989;28;20543;-69
2022/12/28 09:20:49;;;;;;;7.35;6.53;;;8.60;99.90;;;;;;5075042;28;20043;-69
2022/12/28 09:23:15;;;;;;;6.80;6.10;;;8.60;99.90;;;;;;5091956;28;20574;-67
2022/12/28 09:25:40;;;;;;;9.60;6.60;;;8.60;99.90;;;;;;5091851;28;20075;-69
2022/12/28 09:28:06;;;;;;;8.80;6.45;;;8.60;99.90;;;;;;5092152;28;20039;-70
2022/12/28 09:30:31;;;;;;;9.75;6.68;;;8.60;99.90;;;;;;5088933;28;20043;-68
2022/12/28 09:35:41;;;;;;;8.90;7.40;;;8.70;99.90;;;;;;5091717;28;20559;-68
2022/12/28 09:38:07;;;;;;;11.52;6.85;;;8.70;99.90;;;;;;5091425;28;20039;-67
2022/12/28 09:40:34;;;;;;;8.68;6.88;;;8.70;99.90;;;;;;5091381;28;20043;-69
2022/12/28 09:43:00;;;;;;;7.22;6.53;;;8.70;99.90;;;;;;5091593;28;20118;-68
2022/12/28 09:45:26;;;;;;;10.20;7.53;;;8.70;99.90;;;;;;5091252;28;20115;-70
2022/12/28 09:48:00;;;;;;;8.35;7.18;;;8.70;99.90;;;;;;5091106;28;20067;-67
2022/12/28 09:50:31;;;;;;;8.02;7.22;;;8.70;99.90;;;;;;5125329;28;20071;-68
2022/12/28 09:53:19;;;;;;;8.63;7.00;;;8.70;99.90;;;;;;5091313;28;20052;-68
2022/12/28 09:56:03;;;;;;;8.35;6.78;;;8.70;99.90;;;;;;5125067;28;20039;-69
2022/12/28 09:58:32;;;;;;;7.20;6.25;;;8.70;99.90;;;;;;5128929;27;20042;-68
2022/12/28 10:01:02;;;;;;;7.82;6.95;;;8.70;99.90;;;;;;5129446;27;20042;-68
2022/12/28 10:03:43;;;;;;;6.88;6.20;;;8.70;99.90;;;;;;5129331;27;20436;-67
2022/12/28 10:06:27;;;;;;;8.48;6.75;;;8.70;99.90;;;;;;5095346;28;20181;-67
2022/12/28 10:08:55;;;;;;;7.60;6.90;;;8.70;99.90;;;;;;5095145;28;20036;-67
2022/12/28 10:11:41;;;;;;;8.23;7.35;;;8.70;99.90;;;;;;5095364;28;20043;-68
2022/12/28 10:14:33;;;;;;;8.38;7.28;;;8.70;99.90;;;;;;5112322;28;20096;-69
2022/12/28 10:16:58;;;;;;;7.93;7.13;;;8.70;99.90;;;;;;5078064;28;20050;-69
2022/12/28 10:19:26;;;;;;;8.60;7.43;;;8.70;99.90;;;;;;5095251;28;20048;-67
2022/12/28 10:22:04;;;;;;;9.68;7.68;;;8.80;99.90;;;;;;5129516;27;20474;-67
2022/12/28 10:24:31;;;;;;;8.05;7.25;;;8.70;99.90;;;;;;5095279;28;20043;-68
2022/12/28 10:26:59;;;;;;;8.10;7.30;;;8.70;99.90;;;;;;5095260;28;20525;-70
2022/12/28 10:29:26;;;;;;;9.32;7.18;;;8.70;99.90;;;;;;5077972;28;20105;-68
2022/12/28 10:32:08;;;;;;;8.90;8.00;;;8.80;99.90;;;;;;5128872;27;20058;-68
2022/12/28 10:34:35;;;;;;;8.07;7.18;;;8.70;99.90;;;;;;5129025;27;20127;-68
2022/12/28 10:37:05;;;;;;;8.20;7.32;;;8.70;99.90;;;;;;5111830;28;20077;-69
2022/12/28 10:39:31;;;;;;;9.07;7.32;;;8.70;99.90;;;;;;5078056;28;20039;-69
2022/12/28 10:41:59;;;;;;;10.85;7.97;;;8.70;99.90;;;;;;5094569;28;20039;-68
2022/12/28 10:44:31;;;;;;;8.20;7.40;;;8.70;99.90;;;;;;5129391;27;20191;-69
2022/12/28 10:47:02;;;;;;;7.85;7.13;;;8.70;99.90;;;;;;5128703;27;20050;-68
2022/12/28 10:49:34;;;;;;;7.90;7.10;;;8.70;99.90;;;;;;5077374;28;20043;-67
2022/12/28 10:52:02;;;;;;;8.70;6.57;;;8.70;99.90;;;;;;5094553;28;20334;-68
2022/12/28 10:54:32;;;;;;;7.68;6.88;;;8.70;99.90;;;;;;5112780;28;20028;-71
2022/12/28 10:56:58;;;;;;;6.20;5.70;;;8.70;99.90;;;;;;5094702;28;20035;-69
2022/12/28 10:59:26;;;;;;;6.03;5.43;;;8.70;99.90;;;;;;5094218;28;20173;-69
2022/12/28 11:01:55;;;;;;;6.03;5.53;;;8.70;99.90;;;;;;5111415;28;20067;-69
2022/12/28 11:04:25;;;;;;;5.97;5.38;;;8.70;99.90;;;;;;5128659;27;20066;-68
2022/12/28 11:06:57;;;;;;;8.15;5.97;;;8.70;99.90;;;;;;5094600;28;20402;-68
2022/12/28 11:09:27;;;;;;;6.68;5.95;;;8.70;99.90;;;;;;5128440;27;20046;-68
2022/12/28 11:11:55;;;;;;;6.43;5.65;;;8.70;99.90;;;;;;5077060;28;20509;-67
2022/12/28 11:14:26;;;;;;;5.60;5.10;;;8.70;99.90;;;;;;5093883;28;20039;-69
2022/12/28 11:16:52;;;;;;;6.35;5.43;;;8.70;99.90;;;;;;5093833;28;20073;-67
2022/12/28 11:19:20;;;;;;;6.05;5.45;;;8.70;99.90;;;;;;5093829;28;20074;-68
2022/12/28 11:21:46;;;;;;;5.53;5.03;;;8.70;99.90;;;;;;5074752;28;20096;-69
2022/12/28 11:24:17;;;;;;;6.03;5.43;;;8.70;99.90;;;;;;5094024;28;20382;-68
2022/12/28 11:26:45;;;;;;;6.47;5.60;;;8.70;99.90;;;;;;5093771;28;20046;-68
2022/12/28 11:29:14;;;;;;;6.60;5.90;;;8.70;99.90;;;;;;5127616;27;20057;-69
2022/12/28 11:32:04;;;;;;;6.03;5.43;;;8.70;99.90;;;;;;5093556;28;20047;-68
2022/12/28 11:34:30;;;;;;;6.60;5.10;;;8.70;99.90;;;;;;5092542;28;20398;-69
2022/12/28 11:36:56;;;;;;;5.20;4.70;;;8.70;99.90;;;;;;5127655;27;20054;-67
2022/12/28 11:39:25;;;;;;;6.03;5.43;;;8.70;99.90;;;;;;5093099;28;20061;-68
2022/12/28 11:41:58;;;;;;;5.45;4.95;;;8.70;99.90;;;;;;5093638;28;20378;-69
2022/12/28 11:44:33;;;;;;;6.00;5.40;;;8.70;99.90;;;;;;5093365;28;20502;-68
2022/12/28 11:47:25;;;;;;;5.72;5.00;;;8.70;99.90;;;;;;5076346;28;20047;-67
2022/12/28 11:49:52;;;;;;;7.15;4.97;;;8.80;99.90;;;;;;5093203;28;20057;-67
2022/12/28 11:52:29;;;;;;;5.82;4.80;;;8.80;99.90;;;;;;5109472;28;20051;-67
2022/12/28 11:55:25;;;;;;;5.88;5.28;;;8.70;99.90;;;;;;5127257;27;20032;-68
2022/12/28 11:57:52;;;;;;;5.60;5.10;;;8.80;99.90;;;;;;5127162;27;20085;-67
2022/12/28 12:00:18;;;;;;;5.85;5.30;;;8.70;99.90;;;;;;5127539;27;20081;-68
2022/12/28 12:03:00;;;;;;;6.93;5.57;;;8.70;99.90;;;;;;5093113;28;20517;-67
2022/12/28 12:05:36;;;;;;;;;;;8.70;99.90;;;;;;5127786;27;20089;-69
2022/12/28 12:08:21;;;;;;;6.93;5.20;;;8.70;99.90;;;;;;5093247;28;19916;-68
2022/12/28 12:11:08;;;;;;;5.53;4.97;;;8.70;99.90;;;;;;5082053;28;20052;-69
2022/12/28 12:13:39;;;;;;;6.43;5.35;;;8.70;99.90;;;;;;5093024;28;20543;-68
2022/12/28 12:16:16;;;;;;;10.85;6.35;;;8.70;99.90;;;;;;5127432;27;20390;-68
2022/12/28 12:18:50;;;;;;;5.32;4.75;;;8.70;99.90;;;;;;5076002;28;20498;-68
2022/12/28 12:21:38;;;;;;;5.55;4.57;;;8.70;99.90;;;;;;5092427;28;20043;-67
2022/12/28 12:24:25;;;;;;;6.60;5.13;;;8.70;99.90;;;;;;5092672;28;20047;-68
2022/12/28 12:27:14;;;;;;;5.13;4.63;;;8.70;99.90;;;;;;5092643;28;20040;-69
2022/12/28 12:29:45;;;;;;;6.05;4.32;;;8.70;99.90;;;;;;5080670;28;20394;-69
2022/12/28 12:32:24;;;;;;;5.80;4.27;;;8.70;99.90;;;;;;5092872;28;20055;-67
2022/12/28 12:35:03;;;;;;;6.45;4.20;;;8.70;99.90;;;;;;5075771;28;20482;-70
2022/12/28 12:37:46;;;;;;;4.65;3.40;;;8.70;99.90;;;;;;5092650;28;20028;-68
2022/12/28 12:40:26;;;;;;;4.82;3.53;;;8.70;99.90;;;;;;5075871;28;20048;-67
2022/12/28 12:43:07;;;;;;;3.53;3.22;;;8.70;99.90;;;;;;5092386;28;20047;-68
2022/12/28 12:45:48;;;;;;;3.40;3.10;;;8.70;99.90;;;;;;5092340;28;20043;-68
2022/12/28 12:48:26;;;;;;;3.38;3.08;;;8.70;99.90;;;;;;5092214;28;20042;-68
2022/12/28 12:51:20;;;;;;;3.83;2.70;;;8.70;99.90;;;;;;5092252;28;20042;-67
2022/12/28 12:54:04;;;;;;;4.38;2.88;;;8.70;99.90;;;;;;5092191;28;20161;-68
2022/12/28 12:56:57;;;;;;;3.28;2.45;;;8.70;99.90;;;;;;5092539;28;20058;-69
2022/12/28 12:59:54;;;;;;;2.80;2.60;;;8.70;99.90;;;;;;5092438;28;20124;-67
2022/12/28 13:02:57;;;;;;;3.65;2.30;;;8.70;99.90;;;;;;5092016;28;20039;-68
2022/12/28 13:05:26;;;;;;;3.85;2.30;;;8.70;99.90;;;;;;5109073;28;20363;-68
2022/12/28 13:07:55;;;;;;;2.47;2.28;;;8.70;99.90;;;;;;5092062;28;20089;-70
2022/12/28 13:10:43;;;;;;;2.50;2.13;;;8.70;99.90;;;;;;5126203;27;20504;-67
2022/12/28 13:13:27;;;;;;;2.30;1.90;;;8.70;99.90;;;;;;5105757;28;20028;-67
2022/12/28 13:16:00;;;;;;;3.28;2.20;;;8.70;99.90;;;;;;5108664;28;20078;-68
2022/12/28 13:18:26;;;;;;;2.50;2.30;;;8.70;99.90;;;;;;5074177;28;20048;-69
2022/12/28 13:21:00;;;;;;;2.40;2.20;;;8.80;99.90;;;;;;5091847;28;20490;-67
2022/12/28 13:23:27;;;;;;;3.60;2.10;;;8.80;99.90;;;;;;5091531;28;20047;-70
2022/12/28 13:25:57;;;;;;;2.47;2.28;;;8.80;99.90;;;;;;5125825;27;20540;-68
2022/12/28 13:28:28;;;;;;;2.20;2.00;;;8.80;99.90;;;;;;5108498;28;20031;-68
2022/12/28 13:30:58;;;;;;;4.03;2.33;;;8.80;99.90;;;;;;5091346;28;20050;-68
2022/12/28 13:33:24;;;;;;;2.20;2.00;;;8.80;99.90;;;;;;5124437;28;20142;-68
2022/12/28 13:35:49;;;;;;;2.70;2.08;;;8.80;99.90;;;;;;5126108;28;20123;-67
2022/12/28 13:38:17;;;;;;;4.78;2.20;;;8.80;99.90;;;;;;5091482;28;20052;-69